Terminal Aerodrome Forecast
Issued by NWS

Home | Current Version | Previous Version | Text Only | Print | Product List | Glossary On
Versions: 1 2 3 4 5 6 7 8 9 10 11 12 13 14 15 16 17
000
FTUS46 KMTR 242300 RRA
TAFSJC
TAF
KSJC 242345Z 2500/2524 31015G21KT P6SM FEW050 SCT250
     FM250400 28009KT P6SM SCT025 BKN040
     FM250700 20010G15KT P6SM -SHRA BKN020 OVC035
     FM251000 16015G20KT P6SM -RA OVC015
     FM251600 30017G25KT P6SM FEW030 SCT100=

USA.gov is the U.S. government's official web portal to all federal, state and local government web resources and services.